sensor_id;sensor_type;location;lat;lon;timestamp;P1;durP1;ratioP1;P2;durP2;ratioP2
53549;SDS011;67273;52.914;-0.982;2023-05-16T00:00:05;1.75;;;1.10;;
53549;SDS011;67273;52.914;-0.982;2023-05-16T00:02:34;1.00;;;0.88;;
53549;SDS011;67273;52.914;-0.982;2023-05-16T00:05:01;1.58;;;1.25;;
53549;SDS011;67273;52.914;-0.982;2023-05-16T00:07:31;1.23;;;1.13;;
53549;SDS011;67273;52.914;-0.982;2023-05-16T00:09:57;1.33;;;1.13;;
53549;SDS011;67273;52.914;-0.982;2023-05-16T00:12:23;1.55;;;1.10;;
53549;SDS011;67273;52.914;-0.982;2023-05-16T00:14:49;1.48;;;1.05;;
53549;SDS011;67273;52.914;-0.982;2023-05-16T00:17:16;1.75;;;1.10;;
53549;SDS011;67273;52.914;-0.982;2023-05-16T00:19:44;2.30;;;1.25;;
53549;SDS011;67273;52.914;-0.982;2023-05-16T00:22:11;2.13;;;1.30;;
53549;SDS011;67273;52.914;-0.982;2023-05-16T00:24:38;1.40;;;1.10;;
53549;SDS011;67273;52.914;-0.982;2023-05-16T00:27:04;1.70;;;1.13;;
53549;SDS011;67273;52.914;-0.982;2023-05-16T00:29:30;1.20;;;1.10;;
53549;SDS011;67273;52.914;-0.982;2023-05-16T00:31:57;1.58;;;1.20;;
53549;SDS011;67273;52.914;-0.982;2023-05-16T00:34:22;1.63;;;1.00;;
53549;SDS011;67273;52.914;-0.982;2023-05-16T00:36:51;1.08;;;0.82;;
53549;SDS011;67273;52.914;-0.982;2023-05-16T00:39:17;1.55;;;1.17;;
53549;SDS011;67273;52.914;-0.982;2023-05-16T00:41:44;2.67;;;1.13;;
53549;SDS011;67273;52.914;-0.982;2023-05-16T00:44:10;1.77;;;1.17;;
53549;SDS011;67273;52.914;-0.982;2023-05-16T00:46:36;1.70;;;1.05;;
53549;SDS011;67273;52.914;-0.982;2023-05-16T00:49:02;1.10;;;0.90;;
53549;SDS011;67273;52.914;-0.982;2023-05-16T00:51:28;2.40;;;1.20;;
53549;SDS011;67273;52.914;-0.982;2023-05-16T00:53:54;3.30;;;1.30;;
53549;SDS011;67273;52.914;-0.982;2023-05-16T00:56:21;1.50;;;1.10;;
53549;SDS011;67273;52.914;-0.982;2023-05-16T00:58:48;1.48;;;1.00;;
53549;SDS011;67273;52.914;-0.982;2023-05-16T01:01:14;2.38;;;1.10;;
53549;SDS011;67273;52.914;-0.982;2023-05-16T01:03:40;1.67;;;1.15;;
53549;SDS011;67273;52.914;-0.982;2023-05-16T01:06:07;2.25;;;1.33;;
53549;SDS011;67273;52.914;-0.982;2023-05-16T01:08:32;1.45;;;1.05;;
53549;SDS011;67273;52.914;-0.982;2023-05-16T01:10:59;2.03;;;1.30;;
53549;SDS011;67273;52.914;-0.982;2023-05-16T01:13:32;2.38;;;1.20;;
53549;SDS011;67273;52.914;-0.982;2023-05-16T01:16:15;2.55;;;1.10;;
53549;SDS011;67273;52.914;-0.982;2023-05-16T01:18:48;2.38;;;0.90;;
53549;SDS011;67273;52.914;-0.982;2023-05-16T01:21:23;1.60;;;1.10;;
53549;SDS011;67273;52.914;-0.982;2023-05-16T01:24:08;2.15;;;1.23;;
53549;SDS011;67273;52.914;-0.982;2023-05-16T01:26:47;2.35;;;1.35;;
53549;SDS011;67273;52.914;-0.982;2023-05-16T01:29:16;2.47;;;1.27;;
53549;SDS011;67273;52.914;-0.982;2023-05-16T01:31:43;1.85;;;1.23;;
53549;SDS011;67273;52.914;-0.982;2023-05-16T01:34:09;1.60;;;0.98;;
53549;SDS011;67273;52.914;-0.982;2023-05-16T01:36:40;2.25;;;1.23;;
53549;SDS011;67273;52.914;-0.982;2023-05-16T01:39:18;1.52;;;1.05;;
53549;SDS011;67273;52.914;-0.982;2023-05-16T01:41:58;1.65;;;1.10;;
53549;SDS011;67273;52.914;-0.982;2023-05-16T01:44:30;1.85;;;1.20;;
53549;SDS011;67273;52.914;-0.982;2023-05-16T01:47:04;3.30;;;1.30;;
53549;SDS011;67273;52.914;-0.982;2023-05-16T01:49:38;2.15;;;1.30;;
53549;SDS011;67273;52.914;-0.982;2023-05-16T01:52:12;2.72;;;1.40;;
53549;SDS011;67273;52.914;-0.982;2023-05-16T01:54:47;1.85;;;1.25;;
53549;SDS011;67273;52.914;-0.982;2023-05-16T01:59:50;1.80;;;1.23;;
53549;SDS011;67273;52.914;-0.982;2023-05-16T02:02:18;2.63;;;1.02;;
53549;SDS011;67273;52.914;-0.982;2023-05-16T02:04:47;2.67;;;1.27;;
53549;SDS011;67273;52.914;-0.982;2023-05-16T02:07:16;2.45;;;1.30;;
53549;SDS011;67273;52.914;-0.982;2023-05-16T02:09:44;1.45;;;1.00;;
53549;SDS011;67273;52.914;-0.982;2023-05-16T02:12:12;3.15;;;1.40;;
53549;SDS011;67273;52.914;-0.982;2023-05-16T02:14:42;2.13;;;1.20;;
53549;SDS011;67273;52.914;-0.982;2023-05-16T02:17:11;3.08;;;1.20;;
53549;SDS011;67273;52.914;-0.982;2023-05-16T02:19:39;2.42;;;1.13;;
53549;SDS011;67273;52.914;-0.982;2023-05-16T02:22:06;2.42;;;1.30;;
53549;SDS011;67273;52.914;-0.982;2023-05-16T02:24:33;2.17;;;1.10;;
53549;SDS011;67273;52.914;-0.982;2023-05-16T02:27:01;2.33;;;1.30;;
53549;SDS011;67273;52.914;-0.982;2023-05-16T02:29:28;2.53;;;1.30;;
53549;SDS011;67273;52.914;-0.982;2023-05-16T02:31:57;1.92;;;0.93;;
53549;SDS011;67273;52.914;-0.982;2023-05-16T02:34:23;2.22;;;1.33;;
53549;SDS011;67273;52.914;-0.982;2023-05-16T02:36:48;2.45;;;1.27;;
53549;SDS011;67273;52.914;-0.982;2023-05-16T02:39:14;1.67;;;1.20;;
53549;SDS011;67273;52.914;-0.982;2023-05-16T02:41:40;2.20;;;1.30;;
53549;SDS011;67273;52.914;-0.982;2023-05-16T02:44:07;2.08;;;1.20;;
53549;SDS011;67273;52.914;-0.982;2023-05-16T02:46:33;2.83;;;1.50;;
53549;SDS011;67273;52.914;-0.982;2023-05-16T02:49:01;2.08;;;1.10;;
53549;SDS011;67273;52.914;-0.982;2023-05-16T02:51:27;1.92;;;1.13;;
53549;SDS011;67273;52.914;-0.982;2023-05-16T02:53:53;2.22;;;1.30;;
53549;SDS011;67273;52.914;-0.982;2023-05-16T02:56:21;2.70;;;1.30;;
53549;SDS011;67273;52.914;-0.982;2023-05-16T02:58:47;2.30;;;1.13;;
53549;SDS011;67273;52.914;-0.982;2023-05-16T03:01:14;2.72;;;1.27;;
53549;SDS011;67273;52.914;-0.982;2023-05-16T03:03:41;2.17;;;1.15;;
53549;SDS011;67273;52.914;-0.982;2023-05-16T03:06:08;2.28;;;1.40;;
53549;SDS011;67273;52.914;-0.982;2023-05-16T03:08:34;1.90;;;1.08;;
53549;SDS011;67273;52.914;-0.982;2023-05-16T03:11:00;1.83;;;1.10;;
53549;SDS011;67273;52.914;-0.982;2023-05-16T03:13:27;2.85;;;1.40;;
53549;SDS011;67273;52.914;-0.982;2023-05-16T03:15:57;2.05;;;1.17;;
53549;SDS011;67273;52.914;-0.982;2023-05-16T03:18:25;3.08;;;1.55;;
53549;SDS011;67273;52.914;-0.982;2023-05-16T03:20:52;2.50;;;1.40;;
53549;SDS011;67273;52.914;-0.982;2023-05-16T03:23:23;2.85;;;1.15;;
53549;SDS011;67273;52.914;-0.982;2023-05-16T03:25:49;1.42;;;1.00;;
53549;SDS011;67273;52.914;-0.982;2023-05-16T03:28:19;2.70;;;1.30;;
53549;SDS011;67273;52.914;-0.982;2023-05-16T03:30:45;2.05;;;1.20;;
53549;SDS011;67273;52.914;-0.982;2023-05-16T03:33:11;2.72;;;1.27;;
53549;SDS011;67273;52.914;-0.982;2023-05-16T03:35:37;1.77;;;1.17;;
53549;SDS011;67273;52.914;-0.982;2023-05-16T03:38:04;1.95;;;1.30;;
53549;SDS011;67273;52.914;-0.982;2023-05-16T03:40:37;2.60;;;1.20;;
53549;SDS011;67273;52.914;-0.982;2023-05-16T03:43:05;2.92;;;1.40;;
53549;SDS011;67273;52.914;-0.982;2023-05-16T03:45:33;2.53;;;1.33;;
53549;SDS011;67273;52.914;-0.982;2023-05-16T03:48:01;2.90;;;1.25;;
53549;SDS011;67273;52.914;-0.982;2023-05-16T03:50:29;2.60;;;1.23;;
53549;SDS011;67273;52.914;-0.982;2023-05-16T03:52:58;2.58;;;1.23;;
53549;SDS011;67273;52.914;-0.982;2023-05-16T03:55:24;2.75;;;1.40;;
53549;SDS011;67273;52.914;-0.982;2023-05-16T03:57:53;2.72;;;1.33;;
53549;SDS011;67273;52.914;-0.982;2023-05-16T04:00:22;2.60;;;1.40;;
53549;SDS011;67273;52.914;-0.982;2023-05-16T04:02:49;3.00;;;1.30;;
53549;SDS011;67273;52.914;-0.982;2023-05-16T04:05:21;1.58;;;1.20;;
53549;SDS011;67273;52.914;-0.982;2023-05-16T04:07:46;2.53;;;1.30;;
53549;SDS011;67273;52.914;-0.982;2023-05-16T04:10:12;2.67;;;1.45;;
53549;SDS011;67273;52.914;-0.982;2023-05-16T04:12:38;2.65;;;1.20;;
53549;SDS011;67273;52.914;-0.982;2023-05-16T04:15:06;2.55;;;1.17;;
53549;SDS011;67273;52.914;-0.982;2023-05-16T04:17:34;3.58;;;1.33;;
53549;SDS011;67273;52.914;-0.982;2023-05-16T04:20:01;2.22;;;1.30;;
53549;SDS011;67273;52.914;-0.982;2023-05-16T04:22:29;2.75;;;1.20;;
53549;SDS011;67273;52.914;-0.982;2023-05-16T04:24:57;2.17;;;1.15;;
53549;SDS011;67273;52.914;-0.982;2023-05-16T04:27:23;2.20;;;1.08;;
53549;SDS011;67273;52.914;-0.982;2023-05-16T04:29:49;2.53;;;1.20;;
53549;SDS011;67273;52.914;-0.982;2023-05-16T04:32:16;3.10;;;1.25;;
53549;SDS011;67273;52.914;-0.982;2023-05-16T04:34:42;2.75;;;1.02;;
53549;SDS011;67273;52.914;-0.982;2023-05-16T04:37:11;3.83;;;1.63;;
53549;SDS011;67273;52.914;-0.982;2023-05-16T04:39:39;3.35;;;1.60;;
53549;SDS011;67273;52.914;-0.982;2023-05-16T04:42:07;2.72;;;1.48;;
53549;SDS011;67273;52.914;-0.982;2023-05-16T04:44:38;2.95;;;1.42;;
53549;SDS011;67273;52.914;-0.982;2023-05-16T04:47:06;2.70;;;1.30;;
53549;SDS011;67273;52.914;-0.982;2023-05-16T04:49:36;2.72;;;1.30;;
53549;SDS011;67273;52.914;-0.982;2023-05-16T04:52:04;2.97;;;1.55;;
53549;SDS011;67273;52.914;-0.982;2023-05-16T04:54:37;1.63;;;1.13;;
53549;SDS011;67273;52.914;-0.982;2023-05-16T04:57:05;2.53;;;1.30;;
53549;SDS011;67273;52.914;-0.982;2023-05-16T04:59:31;3.50;;;1.20;;
53549;SDS011;67273;52.914;-0.982;2023-05-16T05:01:57;2.85;;;1.27;;
53549;SDS011;67273;52.914;-0.982;2023-05-16T05:04:23;3.60;;;1.38;;
53549;SDS011;67273;52.914;-0.982;2023-05-16T05:06:53;2.05;;;1.25;;
53549;SDS011;67273;52.914;-0.982;2023-05-16T05:09:21;1.75;;;1.00;;
53549;SDS011;67273;52.914;-0.982;2023-05-16T05:11:49;2.45;;;1.35;;
53549;SDS011;67273;52.914;-0.982;2023-05-16T05:14:16;2.70;;;1.42;;
53549;SDS011;67273;52.914;-0.982;2023-05-16T05:16:43;4.00;;;1.40;;
53549;SDS011;67273;52.914;-0.982;2023-05-16T05:19:09;2.10;;;1.23;;
53549;SDS011;67273;52.914;-0.982;2023-05-16T05:21:34;2.90;;;1.50;;
53549;SDS011;67273;52.914;-0.982;2023-05-16T05:24:02;2.40;;;1.25;;
53549;SDS011;67273;52.914;-0.982;2023-05-16T05:26:28;3.28;;;1.55;;
53549;SDS011;67273;52.914;-0.982;2023-05-16T05:28:54;2.72;;;1.30;;
53549;SDS011;67273;52.914;-0.982;2023-05-16T05:31:20;2.78;;;1.33;;
53549;SDS011;67273;52.914;-0.982;2023-05-16T05:33:46;2.25;;;1.02;;
53549;SDS011;67273;52.914;-0.982;2023-05-16T05:36:12;2.22;;;1.23;;
53549;SDS011;67273;52.914;-0.982;2023-05-16T05:38:37;2.30;;;1.30;;
53549;SDS011;67273;52.914;-0.982;2023-05-16T05:41:06;2.85;;;1.38;;
53549;SDS011;67273;52.914;-0.982;2023-05-16T05:43:34;2.72;;;1.45;;
53549;SDS011;67273;52.914;-0.982;2023-05-16T05:46:01;2.88;;;1.30;;
53549;SDS011;67273;52.914;-0.982;2023-05-16T05:48:28;2.75;;;1.38;;
53549;SDS011;67273;52.914;-0.982;2023-05-16T05:50:58;2.38;;;1.17;;
53549;SDS011;67273;52.914;-0.982;2023-05-16T05:53:26;3.90;;;1.50;;
53549;SDS011;67273;52.914;-0.982;2023-05-16T05:55:52;2.83;;;1.30;;
53549;SDS011;67273;52.914;-0.982;2023-05-16T05:58:22;2.70;;;1.33;;
53549;SDS011;67273;52.914;-0.982;2023-05-16T06:00:51;3.33;;;1.30;;
53549;SDS011;67273;52.914;-0.982;2023-05-16T06:03:17;2.85;;;1.20;;
53549;SDS011;67273;52.914;-0.982;2023-05-16T06:05:42;2.63;;;1.38;;
53549;SDS011;67273;52.914;-0.982;2023-05-16T06:08:09;2.20;;;1.30;;
53549;SDS011;67273;52.914;-0.982;2023-05-16T06:10:35;3.53;;;1.42;;
53549;SDS011;67273;52.914;-0.982;2023-05-16T06:13:00;2.42;;;1.35;;
53549;SDS011;67273;52.914;-0.982;2023-05-16T06:15:29;3.83;;;1.45;;
53549;SDS011;67273;52.914;-0.982;2023-05-16T06:17:57;1.27;;;1.00;;
53549;SDS011;67273;52.914;-0.982;2023-05-16T06:20:26;2.28;;;1.25;;
53549;SDS011;67273;52.914;-0.982;2023-05-16T06:22:54;3.35;;;1.30;;
53549;SDS011;67273;52.914;-0.982;2023-05-16T06:25:19;2.28;;;1.30;;
53549;SDS011;67273;52.914;-0.982;2023-05-16T06:27:45;2.10;;;1.08;;
53549;SDS011;67273;52.914;-0.982;2023-05-16T06:30:11;3.15;;;1.40;;
53549;SDS011;67273;52.914;-0.982;2023-05-16T06:32:39;2.30;;;1.20;;
53549;SDS011;67273;52.914;-0.982;2023-05-16T06:35:05;2.97;;;1.35;;
53549;SDS011;67273;52.914;-0.982;2023-05-16T06:37:31;2.08;;;1.00;;
53549;SDS011;67273;52.914;-0.982;2023-05-16T06:39:56;2.55;;;1.35;;
53549;SDS011;67273;52.914;-0.982;2023-05-16T06:42:23;3.97;;;1.60;;
53549;SDS011;67273;52.914;-0.982;2023-05-16T06:44:49;4.78;;;1.30;;
53549;SDS011;67273;52.914;-0.982;2023-05-16T06:47:15;2.25;;;1.20;;
53549;SDS011;67273;52.914;-0.982;2023-05-16T06:49:42;2.55;;;1.25;;
53549;SDS011;67273;52.914;-0.982;2023-05-16T06:52:08;3.22;;;1.35;;
53549;SDS011;67273;52.914;-0.982;2023-05-16T06:54:34;2.58;;;1.30;;
53549;SDS011;67273;52.914;-0.982;2023-05-16T06:57:00;3.15;;;1.33;;
53549;SDS011;67273;52.914;-0.982;2023-05-16T06:59:28;2.20;;;1.17;;
53549;SDS011;67273;52.914;-0.982;2023-05-16T07:01:53;3.40;;;1.50;;
53549;SDS011;67273;52.914;-0.982;2023-05-16T07:04:19;3.13;;;1.50;;
53549;SDS011;67273;52.914;-0.982;2023-05-16T07:06:46;4.22;;;1.50;;
53549;SDS011;67273;52.914;-0.982;2023-05-16T07:09:12;3.70;;;1.50;;
53549;SDS011;67273;52.914;-0.982;2023-05-16T07:11:38;2.03;;;1.13;;
53549;SDS011;67273;52.914;-0.982;2023-05-16T07:14:03;2.35;;;1.30;;
53549;SDS011;67273;52.914;-0.982;2023-05-16T07:16:29;3.95;;;1.60;;
53549;SDS011;67273;52.914;-0.982;2023-05-16T07:18:55;2.50;;;1.40;;
53549;SDS011;67273;52.914;-0.982;2023-05-16T07:21:21;4.90;;;1.50;;
53549;SDS011;67273;52.914;-0.982;2023-05-16T07:23:48;4.75;;;1.60;;
53549;SDS011;67273;52.914;-0.982;2023-05-16T07:26:13;5.65;;;1.65;;
53549;SDS011;67273;52.914;-0.982;2023-05-16T07:28:40;5.85;;;1.60;;
53549;SDS011;67273;52.914;-0.982;2023-05-16T07:31:05;8.93;;;2.08;;
53549;SDS011;67273;52.914;-0.982;2023-05-16T07:33:32;5.85;;;2.00;;
53549;SDS011;67273;52.914;-0.982;2023-05-16T07:35:58;5.13;;;2.03;;
53549;SDS011;67273;52.914;-0.982;2023-05-16T07:38:24;3.88;;;1.45;;
53549;SDS011;67273;52.914;-0.982;2023-05-16T07:40:51;6.63;;;1.48;;
53549;SDS011;67273;52.914;-0.982;2023-05-16T07:43:17;7.13;;;1.73;;
53549;SDS011;67273;52.914;-0.982;2023-05-16T07:45:42;5.53;;;1.80;;
53549;SDS011;67273;52.914;-0.982;2023-05-16T07:48:08;2.88;;;1.30;;
53549;SDS011;67273;52.914;-0.982;2023-05-16T07:50:34;4.28;;;1.70;;
53549;SDS011;67273;52.914;-0.982;2023-05-16T07:53:00;5.07;;;1.65;;
53549;SDS011;67273;52.914;-0.982;2023-05-16T07:55:26;5.10;;;2.00;;
53549;SDS011;67273;52.914;-0.982;2023-05-16T07:57:53;4.07;;;1.63;;
53549;SDS011;67273;52.914;-0.982;2023-05-16T08:00:19;9.25;;;1.75;;
53549;SDS011;67273;52.914;-0.982;2023-05-16T08:02:45;7.95;;;1.58;;
53549;SDS011;67273;52.914;-0.982;2023-05-16T08:05:11;5.80;;;1.60;;
53549;SDS011;67273;52.914;-0.982;2023-05-16T08:07:37;5.20;;;1.70;;
53549;SDS011;67273;52.914;-0.982;2023-05-16T08:10:03;6.80;;;1.80;;
53549;SDS011;67273;52.914;-0.982;2023-05-16T08:12:29;6.50;;;1.83;;
53549;SDS011;67273;52.914;-0.982;2023-05-16T08:14:56;5.90;;;2.00;;
53549;SDS011;67273;52.914;-0.982;2023-05-16T08:17:22;5.93;;;1.50;;
53549;SDS011;67273;52.914;-0.982;2023-05-16T08:19:48;6.13;;;1.52;;
53549;SDS011;67273;52.914;-0.982;2023-05-16T08:22:14;4.57;;;1.90;;
53549;SDS011;67273;52.914;-0.982;2023-05-16T08:24:40;3.63;;;1.42;;
53549;SDS011;67273;52.914;-0.982;2023-05-16T08:27:06;8.15;;;1.73;;
53549;SDS011;67273;52.914;-0.982;2023-05-16T08:29:32;4.15;;;1.65;;
53549;SDS011;67273;52.914;-0.982;2023-05-16T08:32:00;6.00;;;1.83;;
53549;SDS011;67273;52.914;-0.982;2023-05-16T08:34:26;4.15;;;1.80;;
53549;SDS011;67273;52.914;-0.982;2023-05-16T08:36:51;4.80;;;1.60;;
53549;SDS011;67273;52.914;-0.982;2023-05-16T08:39:18;5.35;;;1.83;;
53549;SDS011;67273;52.914;-0.982;2023-05-16T08:41:44;5.93;;;2.10;;
53549;SDS011;67273;52.914;-0.982;2023-05-16T08:44:10;4.63;;;1.90;;
53549;SDS011;67273;52.914;-0.982;2023-05-16T08:46:37;6.32;;;1.77;;
53549;SDS011;67273;52.914;-0.982;2023-05-16T08:49:07;5.35;;;1.90;;
53549;SDS011;67273;52.914;-0.982;2023-05-16T08:51:33;3.15;;;1.55;;
53549;SDS011;67273;52.914;-0.982;2023-05-16T08:54:02;4.28;;;1.65;;
53549;SDS011;67273;52.914;-0.982;2023-05-16T08:56:30;3.92;;;1.50;;
53549;SDS011;67273;52.914;-0.982;2023-05-16T08:58:58;3.40;;;1.55;;
53549;SDS011;67273;52.914;-0.982;2023-05-16T09:01:25;6.85;;;1.88;;
53549;SDS011;67273;52.914;-0.982;2023-05-16T09:03:51;5.75;;;2.20;;
53549;SDS011;67273;52.914;-0.982;2023-05-16T09:06:19;5.05;;;2.38;;
53549;SDS011;67273;52.914;-0.982;2023-05-16T09:08:44;4.65;;;1.85;;
53549;SDS011;67273;52.914;-0.982;2023-05-16T09:11:10;6.18;;;1.85;;
53549;SDS011;67273;52.914;-0.982;2023-05-16T09:13:36;4.90;;;2.28;;
53549;SDS011;67273;52.914;-0.982;2023-05-16T09:16:10;4.18;;;2.20;;
53549;SDS011;67273;52.914;-0.982;2023-05-16T09:18:37;5.63;;;2.03;;
53549;SDS011;67273;52.914;-0.982;2023-05-16T09:21:03;5.18;;;2.25;;
53549;SDS011;67273;52.914;-0.982;2023-05-16T09:23:30;5.35;;;2.45;;
53549;SDS011;67273;52.914;-0.982;2023-05-16T09:25:57;7.00;;;2.80;;
53549;SDS011;67273;52.914;-0.982;2023-05-16T09:28:23;6.25;;;2.45;;
53549;SDS011;67273;52.914;-0.982;2023-05-16T09:30:50;6.90;;;2.80;;
53549;SDS011;67273;52.914;-0.982;2023-05-16T09:33:17;6.53;;;2.85;;
53549;SDS011;67273;52.914;-0.982;2023-05-16T09:35:43;6.03;;;2.65;;
53549;SDS011;67273;52.914;-0.982;2023-05-16T09:38:12;7.72;;;2.75;;
53549;SDS011;67273;52.914;-0.982;2023-05-16T09:40:41;6.03;;;2.75;;
53549;SDS011;67273;52.914;-0.982;2023-05-16T09:43:07;8.60;;;2.90;;
53549;SDS011;67273;52.914;-0.982;2023-05-16T09:45:33;13.48;;;3.15;;
53549;SDS011;67273;52.914;-0.982;2023-05-16T09:48:03;8.00;;;2.65;;
53549;SDS011;67273;52.914;-0.982;2023-05-16T09:50:31;5.38;;;2.60;;
53549;SDS011;67273;52.914;-0.982;2023-05-16T09:52:57;6.15;;;2.88;;
53549;SDS011;67273;52.914;-0.982;2023-05-16T09:55:23;6.90;;;2.58;;
53549;SDS011;67273;52.914;-0.982;2023-05-16T09:57:51;9.10;;;3.20;;
53549;SDS011;67273;52.914;-0.982;2023-05-16T10:00:17;8.75;;;3.05;;
53549;SDS011;67273;52.914;-0.982;2023-05-16T10:02:43;7.05;;;2.78;;
53549;SDS011;67273;52.914;-0.982;2023-05-16T10:05:09;4.57;;;2.65;;
53549;SDS011;67273;52.914;-0.982;2023-05-16T10:07:34;18.88;;;3.17;;
53549;SDS011;67273;52.914;-0.982;2023-05-16T10:10:04;6.00;;;2.72;;
53549;SDS011;67273;52.914;-0.982;2023-05-16T10:12:31;9.25;;;2.75;;
53549;SDS011;67273;52.914;-0.982;2023-05-16T10:14:59;6.10;;;2.80;;
53549;SDS011;67273;52.914;-0.982;2023-05-16T10:17:25;6.45;;;2.90;;
53549;SDS011;67273;52.914;-0.982;2023-05-16T10:19:52;5.13;;;2.38;;
53549;SDS011;67273;52.914;-0.982;2023-05-16T10:22:18;6.22;;;2.65;;
53549;SDS011;67273;52.914;-0.982;2023-05-16T10:24:47;5.28;;;2.75;;
53549;SDS011;67273;52.914;-0.982;2023-05-16T10:27:19;4.75;;;2.70;;
53549;SDS011;67273;52.914;-0.982;2023-05-16T10:29:45;7.20;;;2.53;;
53549;SDS011;67273;52.914;-0.982;2023-05-16T10:32:12;4.70;;;2.67;;
53549;SDS011;67273;52.914;-0.982;2023-05-16T10:34:39;4.68;;;2.40;;
53549;SDS011;67273;52.914;-0.982;2023-05-16T10:37:06;7.28;;;2.60;;
53549;SDS011;67273;52.914;-0.982;2023-05-16T10:39:33;7.53;;;2.45;;
53549;SDS011;67273;52.914;-0.982;2023-05-16T10:42:00;6.78;;;2.85;;
53549;SDS011;67273;52.914;-0.982;2023-05-16T10:44:27;5.40;;;2.80;;
53549;SDS011;67273;52.914;-0.982;2023-05-16T10:46:57;4.80;;;2.50;;
53549;SDS011;67273;52.914;-0.982;2023-05-16T10:49:24;5.90;;;2.70;;
53549;SDS011;67273;52.914;-0.982;2023-05-16T10:52:01;5.05;;;2.25;;
53549;SDS011;67273;52.914;-0.982;2023-05-16T10:54:39;5.90;;;2.53;;
53549;SDS011;67273;52.914;-0.982;2023-05-16T10:57:07;11.50;;;2.60;;
53549;SDS011;67273;52.914;-0.982;2023-05-16T10:59:41;5.32;;;2.47;;
53549;SDS011;67273;52.914;-0.982;2023-05-16T11:05:00;5.95;;;2.72;;
53549;SDS011;67273;52.914;-0.982;2023-05-16T11:07:30;5.25;;;2.75;;
53549;SDS011;67273;52.914;-0.982;2023-05-16T11:10:04;5.15;;;2.75;;
53549;SDS011;67273;52.914;-0.982;2023-05-16T11:12:37;5.45;;;2.97;;
53549;SDS011;67273;52.914;-0.982;2023-05-16T11:15:17;7.20;;;2.50;;
53549;SDS011;67273;52.914;-0.982;2023-05-16T11:17:45;8.30;;;2.90;;
53549;SDS011;67273;52.914;-0.982;2023-05-16T11:20:25;7.30;;;2.67;;
53549;SDS011;67273;52.914;-0.982;2023-05-16T11:22:51;5.22;;;2.60;;
53549;SDS011;67273;52.914;-0.982;2023-05-16T11:25:47;5.32;;;2.55;;
53549;SDS011;67273;52.914;-0.982;2023-05-16T11:28:16;4.55;;;2.70;;
53549;SDS011;67273;52.914;-0.982;2023-05-16T11:30:44;5.28;;;2.72;;
53549;SDS011;67273;52.914;-0.982;2023-05-16T11:33:12;6.47;;;2.92;;
53549;SDS011;67273;52.914;-0.982;2023-05-16T11:35:39;5.47;;;2.83;;
53549;SDS011;67273;52.914;-0.982;2023-05-16T11:38:10;5.53;;;2.75;;
53549;SDS011;67273;52.914;-0.982;2023-05-16T11:40:40;5.03;;;2.95;;
53549;SDS011;67273;52.914;-0.982;2023-05-16T11:43:06;5.72;;;3.05;;
53549;SDS011;67273;52.914;-0.982;2023-05-16T11:45:32;6.07;;;3.00;;
53549;SDS011;67273;52.914;-0.982;2023-05-16T11:48:00;5.75;;;2.65;;
53549;SDS011;67273;52.914;-0.982;2023-05-16T11:50:28;5.60;;;3.10;;
53549;SDS011;67273;52.914;-0.982;2023-05-16T11:52:59;5.63;;;2.78;;
53549;SDS011;67273;52.914;-0.982;2023-05-16T11:55:25;5.82;;;2.78;;
53549;SDS011;67273;52.914;-0.982;2023-05-16T11:57:52;5.85;;;2.72;;
53549;SDS011;67273;52.914;-0.982;2023-05-16T12:00:19;6.18;;;3.30;;
53549;SDS011;67273;52.914;-0.982;2023-05-16T12:02:51;6.05;;;3.03;;
53549;SDS011;67273;52.914;-0.982;2023-05-16T12:05:18;5.50;;;2.95;;
53549;SDS011;67273;52.914;-0.982;2023-05-16T12:07:45;8.23;;;3.58;;
53549;SDS011;67273;52.914;-0.982;2023-05-16T12:10:13;8.20;;;3.40;;
53549;SDS011;67273;52.914;-0.982;2023-05-16T12:12:41;6.10;;;3.05;;
53549;SDS011;67273;52.914;-0.982;2023-05-16T12:15:08;4.85;;;3.13;;
53549;SDS011;67273;52.914;-0.982;2023-05-16T12:17:35;5.60;;;3.35;;
53549;SDS011;67273;52.914;-0.982;2023-05-16T12:20:02;5.90;;;3.30;;
53549;SDS011;67273;52.914;-0.982;2023-05-16T12:22:36;6.80;;;3.00;;
53549;SDS011;67273;52.914;-0.982;2023-05-16T12:27:51;5.40;;;2.88;;
53549;SDS011;67273;52.914;-0.982;2023-05-16T12:30:17;7.75;;;3.67;;
53549;SDS011;67273;52.914;-0.982;2023-05-16T12:32:43;4.40;;;2.67;;
53549;SDS011;67273;52.914;-0.982;2023-05-16T12:35:09;5.60;;;3.17;;
53549;SDS011;67273;52.914;-0.982;2023-05-16T12:37:37;5.20;;;3.05;;
53549;SDS011;67273;52.914;-0.982;2023-05-16T12:40:04;5.07;;;3.00;;
53549;SDS011;67273;52.914;-0.982;2023-05-16T12:42:35;5.60;;;3.33;;
53549;SDS011;67273;52.914;-0.982;2023-05-16T12:45:01;7.20;;;3.20;;
53549;SDS011;67273;52.914;-0.982;2023-05-16T12:47:33;7.05;;;3.58;;
53549;SDS011;67273;52.914;-0.982;2023-05-16T12:50:01;6.55;;;2.70;;
53549;SDS011;67273;52.914;-0.982;2023-05-16T12:52:27;5.55;;;3.00;;
53549;SDS011;67273;52.914;-0.982;2023-05-16T12:54:53;5.55;;;3.03;;
53549;SDS011;67273;52.914;-0.982;2023-05-16T12:57:19;5.72;;;3.00;;
53549;SDS011;67273;52.914;-0.982;2023-05-16T12:59:46;5.38;;;2.88;;
53549;SDS011;67273;52.914;-0.982;2023-05-16T13:02:12;6.68;;;3.30;;
53549;SDS011;67273;52.914;-0.982;2023-05-16T13:04:38;5.70;;;3.15;;
53549;SDS011;67273;52.914;-0.982;2023-05-16T13:07:03;6.97;;;3.15;;
53549;SDS011;67273;52.914;-0.982;2023-05-16T13:09:30;5.85;;;3.42;;
53549;SDS011;67273;52.914;-0.982;2023-05-16T13:11:55;8.70;;;3.03;;
53549;SDS011;67273;52.914;-0.982;2023-05-16T13:14:21;5.38;;;3.13;;
53549;SDS011;67273;52.914;-0.982;2023-05-16T13:16:48;9.77;;;3.53;;
53549;SDS011;67273;52.914;-0.982;2023-05-16T13:19:14;6.20;;;3.05;;
53549;SDS011;67273;52.914;-0.982;2023-05-16T13:21:40;7.07;;;3.40;;
53549;SDS011;67273;52.914;-0.982;2023-05-16T13:24:05;6.70;;;3.15;;
53549;SDS011;67273;52.914;-0.982;2023-05-16T13:26:31;5.65;;;2.88;;
53549;SDS011;67273;52.914;-0.982;2023-05-16T13:28:57;7.53;;;3.28;;
53549;SDS011;67273;52.914;-0.982;2023-05-16T13:31:22;7.50;;;3.40;;
53549;SDS011;67273;52.914;-0.982;2023-05-16T13:33:49;5.82;;;3.00;;
53549;SDS011;67273;52.914;-0.982;2023-05-16T13:36:16;5.50;;;3.08;;
53549;SDS011;67273;52.914;-0.982;2023-05-16T13:38:41;7.80;;;3.38;;
53549;SDS011;67273;52.914;-0.982;2023-05-16T13:41:08;5.28;;;2.97;;
53549;SDS011;67273;52.914;-0.982;2023-05-16T13:43:35;7.20;;;3.08;;
53549;SDS011;67273;52.914;-0.982;2023-05-16T13:46:03;6.65;;;3.67;;
53549;SDS011;67273;52.914;-0.982;2023-05-16T13:48:31;5.53;;;3.17;;
53549;SDS011;67273;52.914;-0.982;2023-05-16T13:50:58;6.20;;;3.30;;
53549;SDS011;67273;52.914;-0.982;2023-05-16T13:53:23;5.65;;;3.38;;
53549;SDS011;67273;52.914;-0.982;2023-05-16T13:55:50;5.57;;;3.00;;
53549;SDS011;67273;52.914;-0.982;2023-05-16T13:58:15;6.18;;;2.90;;
53549;SDS011;67273;52.914;-0.982;2023-05-16T14:00:41;5.25;;;2.70;;
53549;SDS011;67273;52.914;-0.982;2023-05-16T14:03:07;4.40;;;2.92;;
53549;SDS011;67273;52.914;-0.982;2023-05-16T14:05:33;6.28;;;3.30;;
53549;SDS011;67273;52.914;-0.982;2023-05-16T14:08:00;6.15;;;2.95;;
53549;SDS011;67273;52.914;-0.982;2023-05-16T14:10:27;6.20;;;2.88;;
53549;SDS011;67273;52.914;-0.982;2023-05-16T14:12:52;6.57;;;3.15;;
53549;SDS011;67273;52.914;-0.982;2023-05-16T14:15:18;4.20;;;2.65;;
53549;SDS011;67273;52.914;-0.982;2023-05-16T14:17:44;4.28;;;2.90;;
53549;SDS011;67273;52.914;-0.982;2023-05-16T14:20:10;5.68;;;3.17;;
53549;SDS011;67273;52.914;-0.982;2023-05-16T14:22:39;16.38;;;3.00;;
53549;SDS011;67273;52.914;-0.982;2023-05-16T14:25:07;8.10;;;3.35;;
53549;SDS011;67273;52.914;-0.982;2023-05-16T14:27:33;4.95;;;3.10;;
53549;SDS011;67273;52.914;-0.982;2023-05-16T14:29:58;5.32;;;2.67;;
53549;SDS011;67273;52.914;-0.982;2023-05-16T14:32:24;6.15;;;2.85;;
53549;SDS011;67273;52.914;-0.982;2023-05-16T14:34:50;7.32;;;2.88;;
53549;SDS011;67273;52.914;-0.982;2023-05-16T14:37:16;5.57;;;3.00;;
53549;SDS011;67273;52.914;-0.982;2023-05-16T14:39:43;5.63;;;3.00;;
53549;SDS011;67273;52.914;-0.982;2023-05-16T14:42:12;4.93;;;2.70;;